createdAt,value
2017-11-16T00:00:06.071Z,50.90
2017-11-16T00:01:06.042Z,53.00
2017-11-16T00:02:06.016Z,51.70
2017-11-16T00:03:05.986Z,52.60
2017-11-16T00:04:05.955Z,53.40
2017-11-16T00:05:05.932Z,57.30
2017-11-16T00:06:05.907Z,60.50
2017-11-16T00:07:05.878Z,58.10
2017-11-16T00:08:05.856Z,60.20
2017-11-16T00:09:05.827Z,64.60
2017-11-16T00:10:05.806Z,68.90
2017-11-16T00:11:05.764Z,74.70
2017-11-16T00:12:05.744Z,73.20
2017-11-16T00:13:05.716Z,85.90
2017-11-16T00:14:05.689Z,80.90
2017-11-16T00:15:05.661Z,86.40
2017-11-16T00:16:05.883Z,76.20
2017-11-16T00:17:05.609Z,85.00
2017-11-16T00:18:05.573Z,89.70
2017-11-16T00:19:05.553Z,92.80
2017-11-16T00:20:05.523Z,96.30
2017-11-16T00:21:05.797Z,91.80
2017-11-16T00:22:05.475Z,96.80
2017-11-16T00:23:05.439Z,108.80
2017-11-16T00:24:05.418Z,99.80
2017-11-16T00:25:05.385Z,97.30
2017-11-16T00:26:05.360Z,104.50
2017-11-16T00:27:05.332Z,100.70
2017-11-16T00:28:05.307Z,103.10
2017-11-16T00:29:05.277Z,107.90
2017-11-16T00:30:05.258Z,103.20
2017-11-16T00:31:05.222Z,108.50
2017-11-16T00:32:05.199Z,104.10
2017-11-16T00:33:05.172Z,104.60
2017-11-16T00:34:05.141Z,97.90
2017-11-16T00:35:05.111Z,99.40
2017-11-16T00:36:05.083Z,99.80
2017-11-16T00:37:05.057Z,95.10
2017-11-16T00:38:05.032Z,102.80
2017-11-16T00:39:05.262Z,105.50
2017-11-16T00:40:04.978Z,99.30
2017-11-16T00:41:04.952Z,98.90
2017-11-16T00:42:04.925Z,106.00
2017-11-16T00:43:04.894Z,102.40
2017-11-16T00:44:04.869Z,105.30
2017-11-16T00:45:05.145Z,103.10
2017-11-16T00:46:04.808Z,103.40
2017-11-16T00:47:04.791Z,103.50
2017-11-16T00:48:04.759Z,105.70
2017-11-16T00:49:04.739Z,106.10
2017-11-16T00:50:04.711Z,105.50
2017-11-16T00:51:04.682Z,106.00
2017-11-16T00:52:04.649Z,106.30
2017-11-16T00:53:04.654Z,107.00
2017-11-16T00:54:04.598Z,108.30
2017-11-16T00:55:04.563Z,98.90
2017-11-16T00:56:04.543Z,110.10
2017-11-16T00:57:04.511Z,104.10
2017-11-16T00:58:04.484Z,111.40
2017-11-16T00:59:04.459Z,107.70
2017-11-16T01:00:04.431Z,105.80
2017-11-16T01:01:04.404Z,118.20
2017-11-16T01:02:04.376Z,107.00
2017-11-16T01:03:04.358Z,112.50
2017-11-16T01:04:04.321Z,113.20
2017-11-16T01:05:04.301Z,105.20
2017-11-16T01:06:04.274Z,108.40
2017-11-16T01:07:04.536Z,112.80
2017-11-16T01:08:04.215Z,110.00
2017-11-16T01:09:04.183Z,110.80
2017-11-16T01:10:04.156Z,112.60
2017-11-16T01:11:04.133Z,105.20
2017-11-16T01:12:04.114Z,112.70
2017-11-16T01:13:04.330Z,110.00
2017-11-16T01:14:04.058Z,105.20
2017-11-16T01:15:04.024Z,107.30
2017-11-16T01:16:04.005Z,109.50
2017-11-16T01:17:03.969Z,103.10
2017-11-16T01:18:03.941Z,100.30
2017-11-16T01:19:03.913Z,106.00
2017-11-16T01:20:03.889Z,102.40
2017-11-16T01:21:03.857Z,104.60
2017-11-16T01:22:03.853Z,97.30
2017-11-16T01:23:03.798Z,99.40
2017-11-16T01:24:03.773Z,101.20
2017-11-16T01:25:03.753Z,96.70
2017-11-16T01:26:03.723Z,95.90
2017-11-16T01:27:03.695Z,93.80
2017-11-16T01:28:03.666Z,95.80
2017-11-16T01:29:03.643Z,96.20
2017-11-16T01:30:03.610Z,84.80
2017-11-16T01:31:03.580Z,86.90
2017-11-16T01:32:03.557Z,92.20
2017-11-16T01:33:03.523Z,87.80
2017-11-16T01:34:03.500Z,82.70
2017-11-16T01:35:03.482Z,95.40
2017-11-16T01:36:03.448Z,88.60
2017-11-16T01:37:03.675Z,90.40
2017-11-16T01:38:03.397Z,94.80
2017-11-16T01:39:03.374Z,93.00
2017-11-16T01:40:03.338Z,88.00
2017-11-16T01:41:03.314Z,90.70
2017-11-16T01:42:03.289Z,87.20
2017-11-16T01:43:03.507Z,90.70
2017-11-16T01:44:03.232Z,88.80
2017-11-16T01:45:03.203Z,77.10
2017-11-16T01:46:03.172Z,81.80
2017-11-16T01:47:03.143Z,78.50
2017-11-16T01:48:03.119Z,85.70
2017-11-16T01:49:03.094Z,52.40
2017-11-16T01:50:03.063Z,75.30
2017-11-16T01:51:03.039Z,76.10
2017-11-16T01:52:03.007Z,79.70
2017-11-16T01:53:02.985Z,74.90
2017-11-16T01:54:02.964Z,79.20
2017-11-16T01:55:02.934Z,89.10
2017-11-16T01:56:02.901Z,88.00
2017-11-16T01:57:02.873Z,85.50
2017-11-16T01:58:02.845Z,85.50
2017-11-16T01:59:02.820Z,86.30
2017-11-16T02:00:02.802Z,87.00
2017-11-16T02:01:02.762Z,88.60
2017-11-16T02:02:02.738Z,88.80
2017-11-16T02:03:02.711Z,90.80
2017-11-16T02:04:02.685Z,93.20
2017-11-16T02:05:02.657Z,89.40
2017-11-16T02:06:02.624Z,90.70
2017-11-16T02:07:02.600Z,94.60
2017-11-16T02:08:02.572Z,93.60
2017-11-16T02:09:02.563Z,91.40
2017-11-16T02:10:02.527Z,90.90
2017-11-16T02:11:02.520Z,92.20
2017-11-16T02:12:02.460Z,94.70
2017-11-16T02:13:02.434Z,93.40
2017-11-16T02:14:02.407Z,94.00
2017-11-16T02:15:02.389Z,92.90
2017-11-16T02:16:02.358Z,92.60
2017-11-16T02:17:02.325Z,92.50
2017-11-16T02:18:02.302Z,94.70
2017-11-16T02:19:03.240Z,95.20
2017-11-16T02:20:02.246Z,94.20
2017-11-16T02:21:02.223Z,96.60
2017-11-16T02:22:02.188Z,91.50
2017-11-16T02:23:02.169Z,93.10
2017-11-16T02:24:02.147Z,92.20
2017-11-16T02:25:02.363Z,93.50
2017-11-16T02:26:02.085Z,93.30
2017-11-16T02:27:02.051Z,91.10
2017-11-16T02:28:02.032Z,91.90
2017-11-16T02:29:02.003Z,89.00
2017-11-16T02:30:01.978Z,91.50
2017-11-16T02:31:01.943Z,91.40
2017-11-16T02:32:01.923Z,90.60
2017-11-16T02:33:01.889Z,92.20
2017-11-16T02:34:01.869Z,91.50
2017-11-16T02:35:01.841Z,90.90
2017-11-16T02:36:01.810Z,94.00
2017-11-16T02:37:01.786Z,90.40
2017-11-16T02:38:01.761Z,91.30
2017-11-16T02:39:01.731Z,87.10
2017-11-16T02:40:01.700Z,88.00
2017-11-16T02:41:01.675Z,88.30
2017-11-16T02:42:01.650Z,92.30
2017-11-16T02:43:01.919Z,87.00
2017-11-16T02:44:01.595Z,91.70
2017-11-16T02:45:01.562Z,90.20
2017-11-16T02:46:01.545Z,87.80
2017-11-16T02:47:01.517Z,88.80
2017-11-16T02:48:01.490Z,89.90
2017-11-16T02:49:01.454Z,88.70
2017-11-16T02:50:01.430Z,87.50
2017-11-16T02:51:01.405Z,89.50
2017-11-16T02:52:01.375Z,88.20
2017-11-16T02:53:01.349Z,89.20
2017-11-16T02:54:01.326Z,89.50
2017-11-16T02:55:01.293Z,88.60
2017-11-16T02:56:01.267Z,88.20
2017-11-16T02:57:01.236Z,85.60
2017-11-16T02:58:01.215Z,86.70
2017-11-16T02:59:01.186Z,89.90
2017-11-16T03:00:01.405Z,88.40
2017-11-16T03:01:01.135Z,87.60
2017-11-16T03:02:01.107Z,86.10
2017-11-16T03:03:01.078Z,90.30
2017-11-16T03:04:01.056Z,85.70
2017-11-16T03:05:01.023Z,89.00
2017-11-16T03:06:01.099Z,87.40
2017-11-16T03:07:00.974Z,87.90
2017-11-16T03:08:00.941Z,89.20
2017-11-16T03:09:00.918Z,86.00
2017-11-16T03:10:00.885Z,89.90
2017-11-16T03:11:00.855Z,90.00
2017-11-16T03:12:00.828Z,90.50
2017-11-16T03:13:00.813Z,86.10
2017-11-16T03:14:00.778Z,87.80
2017-11-16T03:15:00.752Z,90.50
2017-11-16T03:16:00.722Z,89.70
2017-11-16T03:17:00.692Z,85.70
2017-11-16T03:18:00.672Z,88.90
2017-11-16T03:19:00.641Z,89.80
2017-11-16T03:20:00.614Z,88.20
2017-11-16T03:21:00.586Z,86.10
2017-11-16T03:22:00.562Z,86.00
2017-11-16T03:23:00.535Z,85.40
2017-11-16T03:24:00.811Z,82.40
2017-11-16T03:25:00.488Z,85.20
2017-11-16T03:26:00.447Z,82.10
2017-11-16T03:27:00.426Z,84.50
2017-11-16T03:28:00.398Z,80.90
2017-11-16T03:29:00.375Z,81.10
2017-11-16T03:30:01.298Z,81.60
2017-11-16T03:31:00.317Z,83.30
2017-11-16T03:32:00.291Z,82.50
2017-11-16T03:33:00.265Z,78.10
2017-11-16T03:34:00.235Z,79.20
2017-11-16T03:35:00.201Z,77.00
2017-11-16T03:36:00.941Z,77.60
2017-11-16T03:37:00.154Z,79.30
2017-11-16T03:38:00.127Z,79.50
2017-11-16T03:39:00.097Z,79.50
2017-11-16T03:40:00.065Z,76.50
2017-11-16T03:41:00.047Z,75.10
2017-11-16T03:42:00.018Z,75.90
2017-11-16T03:42:59.983Z,72.50
2017-11-16T03:43:59.961Z,74.90
2017-11-16T03:44:59.931Z,73.50
2017-11-16T03:45:59.902Z,72.70
2017-11-16T03:46:59.879Z,76.40
2017-11-16T03:47:59.856Z,74.50
2017-11-16T03:48:59.823Z,75.20
2017-11-16T03:49:59.799Z,75.30
2017-11-16T03:50:59.772Z,75.90
2017-11-16T03:51:59.744Z,70.80
2017-11-16T03:52:59.716Z,64.90
2017-11-16T03:53:59.684Z,68.90
2017-11-16T03:54:59.664Z,71.80
2017-11-16T03:55:59.630Z,70.80
2017-11-16T03:56:59.609Z,73.80
2017-11-16T03:57:59.579Z,72.00
2017-11-16T03:58:59.548Z,72.80
2017-11-16T03:59:59.521Z,63.60
2017-11-16T04:00:59.494Z,67.90
2017-11-16T04:01:59.475Z,68.90
2017-11-16T04:02:59.442Z,69.40
2017-11-16T04:03:59.417Z,68.00
2017-11-16T04:05:00.235Z,65.10
2017-11-16T04:05:59.368Z,65.30
2017-11-16T04:06:59.345Z,65.00
2017-11-16T04:07:59.308Z,65.80
2017-11-16T04:08:59.279Z,62.10
2017-11-16T04:09:59.259Z,63.60
2017-11-16T04:10:59.477Z,61.60
2017-11-16T04:11:59.197Z,59.30
2017-11-16T04:12:59.168Z,53.80
2017-11-16T04:13:59.157Z,48.30
2017-11-16T04:14:59.114Z,47.00
2017-11-16T04:15:59.100Z,46.20
2017-11-16T04:16:59.408Z,40.80
2017-11-16T04:17:59.037Z,36.60
2017-11-16T04:18:59.009Z,38.30
2017-11-16T04:19:58.983Z,36.40
2017-11-16T04:20:58.954Z,33.70
2017-11-16T04:21:58.929Z,33.00
2017-11-16T04:22:58.894Z,38.50
2017-11-16T04:23:58.872Z,38.60
2017-11-16T04:24:58.846Z,34.60
2017-11-16T04:25:58.815Z,32.30
2017-11-16T04:26:58.793Z,34.20
2017-11-16T04:27:58.764Z,40.00
2017-11-16T04:28:59.030Z,36.50
2017-11-16T04:29:58.702Z,37.30
2017-11-16T04:30:58.678Z,36.70
2017-11-16T04:31:58.653Z,36.80
2017-11-16T04:32:58.622Z,36.30
2017-11-16T04:33:59.000Z,31.90
2017-11-16T04:34:58.572Z,35.50
2017-11-16T04:35:58.555Z,34.10
2017-11-16T04:36:58.519Z,38.40
2017-11-16T04:37:58.768Z,40.60
2017-11-16T04:38:58.481Z,42.50
2017-11-16T04:39:58.433Z,40.90
2017-11-16T04:40:58.405Z,41.20
2017-11-16T04:41:58.403Z,47.00
2017-11-16T04:42:58.352Z,50.90
2017-11-16T04:43:58.322Z,53.40
2017-11-16T04:44:58.299Z,56.00
2017-11-16T04:45:58.267Z,54.40
2017-11-16T04:46:58.242Z,56.80
2017-11-16T04:47:58.215Z,59.90
2017-11-16T04:48:58.188Z,57.50
2017-11-16T04:49:58.171Z,57.90
2017-11-16T04:50:58.136Z,56.80
2017-11-16T04:51:58.352Z,57.70
2017-11-16T04:52:58.079Z,59.30
2017-11-16T04:53:58.054Z,58.40
2017-11-16T04:54:58.023Z,59.30
2017-11-16T04:55:57.995Z,60.00
2017-11-16T04:56:57.965Z,59.60
2017-11-16T04:57:58.246Z,58.80
2017-11-16T04:58:57.917Z,58.50
2017-11-16T04:59:57.883Z,55.70
2017-11-16T05:00:57.862Z,57.70
2017-11-16T05:01:57.828Z,57.90
2017-11-16T05:02:57.806Z,58.20
2017-11-16T05:03:58.084Z,54.90
2017-11-16T05:04:57.749Z,55.00
2017-11-16T05:05:57.725Z,53.20
2017-11-16T05:06:57.698Z,57.10
2017-11-16T05:07:57.665Z,54.70
2017-11-16T05:08:57.643Z,56.40
2017-11-16T05:09:57.610Z,55.00
2017-11-16T05:10:57.590Z,61.90
2017-11-16T05:11:57.564Z,60.40
2017-11-16T05:12:57.533Z,58.70
2017-11-16T05:13:57.505Z,60.50
2017-11-16T05:14:57.475Z,61.60
2017-11-16T05:15:57.449Z,60.90
2017-11-16T05:16:57.425Z,64.10
2017-11-16T05:17:57.394Z,63.80
2017-11-16T05:18:57.363Z,62.10
2017-11-16T05:19:57.592Z,58.20
2017-11-16T05:20:57.316Z,59.90
2017-11-16T05:21:57.282Z,62.70
2017-11-16T05:22:57.264Z,61.30
2017-11-16T05:23:57.231Z,62.60
2017-11-16T05:24:57.202Z,64.80
2017-11-16T05:25:57.477Z,64.30
2017-11-16T05:26:57.146Z,61.70
2017-11-16T05:27:57.119Z,60.80
2017-11-16T05:28:57.091Z,59.80
2017-11-16T05:29:57.069Z,62.10
2017-11-16T05:30:57.048Z,58.40
2017-11-16T05:31:57.010Z,62.20
2017-11-16T05:32:56.988Z,60.90
2017-11-16T05:33:56.955Z,61.50
2017-11-16T05:34:56.931Z,59.10
2017-11-16T05:35:56.900Z,59.70
2017-11-16T05:36:56.869Z,62.00
2017-11-16T05:37:57.143Z,59.30
2017-11-16T05:38:56.821Z,60.30
2017-11-16T05:39:56.787Z,60.80
2017-11-16T05:40:56.767Z,60.40
2017-11-16T05:41:56.742Z,58.00
2017-11-16T05:42:56.710Z,57.40
2017-11-16T05:43:56.683Z,55.70
2017-11-16T05:44:56.653Z,58.50
2017-11-16T05:45:56.625Z,57.40
2017-11-16T05:46:56.599Z,57.50
2017-11-16T05:47:56.567Z,60.10
2017-11-16T05:48:56.544Z,59.40
2017-11-16T05:49:56.540Z,58.00
2017-11-16T05:50:56.485Z,57.50
2017-11-16T05:51:56.464Z,59.50
2017-11-16T05:52:56.433Z,61.30
2017-11-16T05:53:56.408Z,61.10
2017-11-16T05:54:56.373Z,58.00
2017-11-16T05:55:56.353Z,58.80
2017-11-16T05:56:56.330Z,61.00
2017-11-16T05:57:56.298Z,59.50
2017-11-16T05:58:56.269Z,60.70
2017-11-16T05:59:56.245Z,59.90
2017-11-16T06:00:56.207Z,61.10
2017-11-16T06:01:56.182Z,59.40
2017-11-16T06:02:56.160Z,58.10
2017-11-16T06:03:56.127Z,58.20
2017-11-16T06:04:56.098Z,58.10
2017-11-16T06:05:56.074Z,57.10
2017-11-16T06:06:56.047Z,59.40
2017-11-16T06:07:56.015Z,58.60
2017-11-16T06:08:55.992Z,58.10
2017-11-16T06:09:55.964Z,57.80
2017-11-16T06:10:55.932Z,56.50
2017-11-16T06:11:55.909Z,59.00
2017-11-16T06:12:55.878Z,56.70
2017-11-16T06:13:56.102Z,57.90
2017-11-16T06:14:55.824Z,57.00
2017-11-16T06:15:55.800Z,58.70
2017-11-16T06:16:55.774Z,58.20
2017-11-16T06:17:55.743Z,58.60
2017-11-16T06:18:55.721Z,59.80
2017-11-16T06:19:55.689Z,59.30
2017-11-16T06:20:55.663Z,57.10
2017-11-16T06:21:55.633Z,59.50
2017-11-16T06:22:55.607Z,60.20
2017-11-16T06:23:55.588Z,58.20
2017-11-16T06:24:55.554Z,60.30
2017-11-16T06:25:55.524Z,59.10
2017-11-16T06:26:55.503Z,59.50
2017-11-16T06:27:55.467Z,56.30
2017-11-16T06:28:55.440Z,59.90
2017-11-16T06:29:55.426Z,58.90
2017-11-16T06:30:55.397Z,57.40
2017-11-16T06:31:55.358Z,57.40
2017-11-16T06:32:55.334Z,59.20
2017-11-16T06:33:55.309Z,56.90
2017-11-16T06:34:55.283Z,60.40
2017-11-16T06:35:55.253Z,58.30
2017-11-16T06:36:55.218Z,57.50
2017-11-16T06:37:55.445Z,59.10
2017-11-16T06:38:55.166Z,57.20
2017-11-16T06:39:55.135Z,59.90
2017-11-16T06:40:55.117Z,56.60
2017-11-16T06:41:55.079Z,57.00
2017-11-16T06:42:55.054Z,57.10
2017-11-16T06:43:55.290Z,58.10
2017-11-16T06:44:55.002Z,60.10
2017-11-16T06:45:54.976Z,58.00
2017-11-16T06:46:54.945Z,59.80
2017-11-16T06:47:54.920Z,56.90
2017-11-16T06:48:54.887Z,57.20
2017-11-16T06:49:55.168Z,57.50
2017-11-16T06:50:54.842Z,58.90
2017-11-16T06:51:54.813Z,56.00
2017-11-16T06:52:54.786Z,56.90
2017-11-16T06:53:54.756Z,58.90
2017-11-16T06:54:54.730Z,56.50
2017-11-16T06:55:54.801Z,57.20
2017-11-16T06:56:54.674Z,56.80
2017-11-16T06:57:54.639Z,58.60
2017-11-16T06:58:54.612Z,54.10
2017-11-16T06:59:54.584Z,56.60
2017-11-16T07:00:54.563Z,54.70
2017-11-16T07:01:54.528Z,55.80
2017-11-16T07:02:54.507Z,55.30
2017-11-16T07:03:54.485Z,56.00
2017-11-16T07:04:54.450Z,54.50
2017-11-16T07:05:54.426Z,54.80
2017-11-16T07:06:54.395Z,50.50
2017-11-16T07:07:54.370Z,53.60
2017-11-16T07:08:54.343Z,53.60
2017-11-16T07:09:54.322Z,50.40
2017-11-16T07:10:54.286Z,50.70
2017-11-16T07:11:54.261Z,50.90
2017-11-16T07:12:54.482Z,52.30
2017-11-16T07:13:54.205Z,49.30
2017-11-16T07:14:54.175Z,50.40
2017-11-16T07:15:54.153Z,49.00
2017-11-16T07:16:54.124Z,50.00
2017-11-16T07:17:54.096Z,48.60
2017-11-16T07:18:54.067Z,47.70
2017-11-16T07:19:54.038Z,49.40
2017-11-16T07:20:54.006Z,48.90
2017-11-16T07:21:53.984Z,46.60
2017-11-16T07:22:53.952Z,47.70
2017-11-16T07:23:53.935Z,46.30
2017-11-16T07:24:54.203Z,47.60
2017-11-16T07:25:53.869Z,43.50
2017-11-16T07:26:53.843Z,43.70
2017-11-16T07:27:53.817Z,44.00
2017-11-16T07:28:53.788Z,43.50
2017-11-16T07:29:53.764Z,42.70
2017-11-16T07:30:53.739Z,41.00
2017-11-16T07:31:53.728Z,40.80
2017-11-16T07:32:53.680Z,43.30
2017-11-16T07:33:53.657Z,41.40
2017-11-16T07:34:53.635Z,41.90
2017-11-16T07:35:53.598Z,38.20
2017-11-16T07:36:53.589Z,28.70
2017-11-16T07:37:53.541Z,33.90
2017-11-16T07:38:53.519Z,36.90
2017-11-16T07:39:53.487Z,23.60
2017-11-16T07:40:53.465Z,33.30
2017-11-16T07:41:53.433Z,27.60
2017-11-16T07:42:53.661Z,27.70
2017-11-16T07:43:53.384Z,35.70
2017-11-16T07:44:53.357Z,34.60
2017-11-16T07:45:53.328Z,35.30
2017-11-16T07:46:53.298Z,34.60
2017-11-16T07:47:53.269Z,32.70
2017-11-16T07:48:53.245Z,34.00
2017-11-16T07:49:53.222Z,26.10
2017-11-16T07:50:53.209Z,20.00
2017-11-16T07:51:53.164Z,24.60
2017-11-16T07:52:53.129Z,34.10
2017-11-16T07:53:53.111Z,34.20
2017-11-16T07:54:53.075Z,32.30
2017-11-16T07:55:53.051Z,32.80
2017-11-16T07:56:53.024Z,34.70
2017-11-16T07:57:52.999Z,34.20
2017-11-16T07:58:52.968Z,33.80
2017-11-16T07:59:52.940Z,32.90
2017-11-16T08:00:52.921Z,34.30
2017-11-16T08:01:52.895Z,33.80
2017-11-16T08:02:52.863Z,34.90
2017-11-16T08:03:52.829Z,33.50
2017-11-16T08:04:52.805Z,33.00
2017-11-16T08:05:52.780Z,30.10
2017-11-16T08:06:52.753Z,33.50
2017-11-16T08:07:52.721Z,32.50
2017-11-16T08:08:52.694Z,34.20
2017-11-16T08:09:52.674Z,33.80
2017-11-16T08:10:52.642Z,33.90
2017-11-16T08:11:52.608Z,35.50
2017-11-16T08:12:52.585Z,35.70
2017-11-16T08:13:52.558Z,35.60
2017-11-16T08:14:52.538Z,32.70
2017-11-16T08:15:52.505Z,33.90
2017-11-16T08:16:52.476Z,35.30
2017-11-16T08:17:52.456Z,34.00
2017-11-16T08:18:52.421Z,35.40
2017-11-16T08:19:52.395Z,34.70
2017-11-16T08:20:52.365Z,32.40
2017-11-16T08:21:52.345Z,35.70
2017-11-16T08:22:52.316Z,35.40
2017-11-16T08:23:52.292Z,31.20
2017-11-16T08:24:52.302Z,32.30
2017-11-16T08:25:52.234Z,33.10
2017-11-16T08:26:52.211Z,34.60
2017-11-16T08:27:52.177Z,34.40
2017-11-16T08:28:52.159Z,33.50
2017-11-16T08:29:52.119Z,34.20
2017-11-16T08:30:52.105Z,33.20
2017-11-16T08:31:52.069Z,31.80
2017-11-16T08:32:52.046Z,33.90
2017-11-16T08:33:52.019Z,33.70
2017-11-16T08:34:51.988Z,33.60
2017-11-16T08:35:51.961Z,32.90
2017-11-16T08:36:51.935Z,33.80
2017-11-16T08:37:51.910Z,33.90
2017-11-16T08:38:51.882Z,31.80
2017-11-16T08:39:51.852Z,33.40
2017-11-16T08:40:51.822Z,33.10
2017-11-16T08:41:51.817Z,33.40
2017-11-16T08:42:51.779Z,33.10
2017-11-16T08:43:51.743Z,34.70
2017-11-16T08:44:51.716Z,34.80
2017-11-16T08:45:51.704Z,34.20
2017-11-16T08:46:51.663Z,34.50
2017-11-16T08:47:51.643Z,34.80
2017-11-16T08:48:51.608Z,32.40
2017-11-16T08:49:51.591Z,33.50
2017-11-16T08:50:51.561Z,34.50
2017-11-16T08:51:51.531Z,35.20
2017-11-16T08:52:51.749Z,33.90
2017-11-16T08:53:51.473Z,32.70
2017-11-16T08:54:51.448Z,35.00
2017-11-16T08:55:51.438Z,31.80
2017-11-16T08:56:51.395Z,34.00
2017-11-16T08:57:51.375Z,34.50
2017-11-16T08:58:51.436Z,36.40
2017-11-16T08:59:51.321Z,37.20
2017-11-16T09:00:51.280Z,35.60
2017-11-16T09:01:51.258Z,36.00
2017-11-16T09:02:51.232Z,36.20
2017-11-16T09:03:51.206Z,33.60
2017-11-16T09:04:51.180Z,37.50
2017-11-16T09:05:51.153Z,34.80
2017-11-16T09:06:51.124Z,31.40
2017-11-16T09:07:51.100Z,33.00
2017-11-16T09:08:51.067Z,35.60
2017-11-16T09:09:51.048Z,32.10
2017-11-16T09:10:51.011Z,35.30
2017-11-16T09:11:50.994Z,36.70
2017-11-16T09:12:50.963Z,31.40
2017-11-16T09:13:50.941Z,36.10
2017-11-16T09:14:50.908Z,36.60
2017-11-16T09:15:50.877Z,36.00
2017-11-16T09:16:50.857Z,34.60
2017-11-16T09:17:50.825Z,34.60
2017-11-16T09:18:50.798Z,35.80
2017-11-16T09:19:50.810Z,40.30
2017-11-16T09:20:50.746Z,36.00
2017-11-16T09:21:50.712Z,35.10
2017-11-16T09:22:50.692Z,37.30
2017-11-16T09:23:50.667Z,32.70
2017-11-16T09:24:50.643Z,37.30
2017-11-16T09:25:50.604Z,38.00
2017-11-16T09:26:50.580Z,37.30
2017-11-16T09:27:50.555Z,35.90
2017-11-16T09:28:50.774Z,35.10
2017-11-16T09:29:50.498Z,37.20
2017-11-16T09:30:50.474Z,36.30
2017-11-16T09:31:50.460Z,36.70
2017-11-16T09:32:50.415Z,35.80
2017-11-16T09:33:50.407Z,36.70
2017-11-16T09:34:50.371Z,37.10
2017-11-16T09:35:50.354Z,38.10
2017-11-16T09:36:50.307Z,38.40
2017-11-16T09:37:50.281Z,38.20
2017-11-16T09:38:50.260Z,34.30
2017-11-16T09:39:50.236Z,35.70
2017-11-16T09:40:50.204Z,34.60
2017-11-16T09:41:50.178Z,32.60
2017-11-16T09:42:50.150Z,33.70
2017-11-16T09:43:50.129Z,33.50
2017-11-16T09:44:50.100Z,32.70
2017-11-16T09:45:50.072Z,24.50
2017-11-16T09:46:50.392Z,32.80
2017-11-16T09:47:50.025Z,31.60
2017-11-16T09:48:49.989Z,32.50
2017-11-16T09:49:49.968Z,30.50
2017-11-16T09:50:49.933Z,31.60
2017-11-16T09:51:49.912Z,23.40
2017-11-16T09:52:49.981Z,18.70
2017-11-16T09:53:49.868Z,28.30
2017-11-16T09:54:49.822Z,30.40
2017-11-16T09:55:49.801Z,23.20
2017-11-16T09:56:49.772Z,20.40
2017-11-16T09:57:49.748Z,18.70
2017-11-16T09:58:49.730Z,20.10
2017-11-16T09:59:49.692Z,20.30
2017-11-16T10:00:49.663Z,27.20
2017-11-16T10:01:49.643Z,25.80
2017-11-16T10:02:49.634Z,28.90
2017-11-16T10:03:49.892Z,29.80
2017-11-16T10:04:49.561Z,19.90
2017-11-16T10:05:49.533Z,26.00
2017-11-16T10:06:49.503Z,24.10
2017-11-16T10:07:49.478Z,29.20
2017-11-16T10:08:49.449Z,29.30
2017-11-16T10:09:49.425Z,22.20
2017-11-16T10:10:49.400Z,27.80
2017-11-16T10:11:49.373Z,23.40
2017-11-16T10:12:49.341Z,19.90
2017-11-16T10:13:49.319Z,27.30
2017-11-16T10:14:49.298Z,19.70
2017-11-16T10:15:49.267Z,28.40
2017-11-16T10:16:49.233Z,25.90
2017-11-16T10:17:49.219Z,23.50
2017-11-16T10:18:49.216Z,29.60
2017-11-16T10:19:49.153Z,23.20
2017-11-16T10:20:49.157Z,26.30
2017-11-16T10:21:49.109Z,26.90
2017-11-16T10:22:49.074Z,25.20
2017-11-16T10:23:49.050Z,20.40
2017-11-16T10:24:49.027Z,20.30
2017-11-16T10:25:48.999Z,21.10
2017-11-16T10:26:48.967Z,26.30
2017-11-16T10:27:48.945Z,20.00
2017-11-16T10:28:48.920Z,27.90
2017-11-16T10:29:48.886Z,28.40
2017-11-16T10:30:48.872Z,29.40
2017-11-16T10:31:48.836Z,30.00
2017-11-16T10:32:49.072Z,28.80
2017-11-16T10:33:48.785Z,28.80
2017-11-16T10:34:48.760Z,28.80
2017-11-16T10:35:48.727Z,30.60
2017-11-16T10:36:48.699Z,27.40
2017-11-16T10:37:48.675Z,27.90
2017-11-16T10:38:48.748Z,24.30
2017-11-16T10:39:48.621Z,26.70
2017-11-16T10:40:48.595Z,18.80
2017-11-16T10:41:48.563Z,21.60
2017-11-16T10:42:48.542Z,18.70
2017-11-16T10:43:48.513Z,26.20
2017-11-16T10:44:48.492Z,27.70
2017-11-16T10:45:48.460Z,26.80
2017-11-16T10:46:48.433Z,24.90
2017-11-16T10:47:48.427Z,23.30
2017-11-16T10:48:48.380Z,25.70
2017-11-16T10:49:48.357Z,27.40
2017-11-16T10:50:48.333Z,25.60
2017-11-16T10:51:48.298Z,21.70
2017-11-16T10:52:48.272Z,16.30
2017-11-16T10:53:48.248Z,15.50
2017-11-16T10:54:48.231Z,13.40
2017-11-16T10:55:48.199Z,24.00
2017-11-16T10:56:48.167Z,24.60
2017-11-16T10:57:48.145Z,16.80
2017-11-16T10:58:48.123Z,21.30
2017-11-16T10:59:48.095Z,15.20
2017-11-16T11:00:48.069Z,16.80
2017-11-16T11:01:48.040Z,19.00
2017-11-16T11:02:48.019Z,20.30
2017-11-16T11:03:47.985Z,20.90
2017-11-16T11:04:47.955Z,14.60
2017-11-16T11:05:47.941Z,22.80
2017-11-16T11:06:47.903Z,23.70
2017-11-16T11:07:48.231Z,24.80
2017-11-16T11:08:47.882Z,23.20
2017-11-16T11:09:47.828Z,25.30
2017-11-16T11:10:47.809Z,24.30
2017-11-16T11:11:47.776Z,25.20
2017-11-16T11:12:47.754Z,18.60
2017-11-16T11:13:47.974Z,20.20
2017-11-16T11:14:47.698Z,21.90
2017-11-16T11:15:47.671Z,12.50
2017-11-16T11:16:47.662Z,15.90
2017-11-16T11:17:47.623Z,21.00
2017-11-16T11:18:47.590Z,22.30
2017-11-16T11:19:47.566Z,17.40
2017-11-16T11:20:47.551Z,14.20
2017-11-16T11:21:47.525Z,17.20
2017-11-16T11:22:47.495Z,24.20
2017-11-16T11:23:47.469Z,15.30
2017-11-16T11:24:47.437Z,13.90
2017-11-16T11:25:47.407Z,15.10
2017-11-16T11:26:47.389Z,21.80
2017-11-16T11:27:47.354Z,19.90
2017-11-16T11:28:47.328Z,21.90
2017-11-16T11:29:47.303Z,22.50
2017-11-16T11:30:47.287Z,18.10
2017-11-16T11:31:47.252Z,17.70
2017-11-16T11:32:47.229Z,20.80
2017-11-16T11:33:47.194Z,18.70
2017-11-16T11:34:47.167Z,22.30
2017-11-16T11:35:47.145Z,24.80
2017-11-16T11:36:47.113Z,23.00
2017-11-16T11:37:47.489Z,24.00
2017-11-16T11:38:47.063Z,23.70
2017-11-16T11:39:47.038Z,24.10
2017-11-16T11:40:47.012Z,24.90
2017-11-16T11:41:46.979Z,23.80
2017-11-16T11:42:46.956Z,24.60
2017-11-16T11:43:46.929Z,23.90
2017-11-16T11:44:46.904Z,24.90
2017-11-16T11:45:46.874Z,16.90
2017-11-16T11:46:46.850Z,17.30
2017-11-16T11:47:46.829Z,15.30
2017-11-16T11:48:46.801Z,15.90
2017-11-16T11:49:46.774Z,23.10
2017-11-16T11:50:46.741Z,24.20
2017-11-16T11:51:46.713Z,22.40
2017-11-16T11:52:46.692Z,18.70
2017-11-16T11:53:46.667Z,16.30
2017-11-16T11:54:46.636Z,18.90
2017-11-16T11:55:46.607Z,22.10
2017-11-16T11:56:46.577Z,20.50
2017-11-16T11:57:46.552Z,19.60
2017-11-16T11:58:46.533Z,22.80
2017-11-16T11:59:46.505Z,17.50
2017-11-16T12:00:46.475Z,20.20
2017-11-16T12:01:46.444Z,18.40
2017-11-16T12:02:46.422Z,21.80
2017-11-16T12:03:46.392Z,18.50
2017-11-16T12:04:46.372Z,16.00
2017-11-16T12:05:46.337Z,15.50
2017-11-16T12:06:46.417Z,18.00
2017-11-16T12:07:46.288Z,16.90
2017-11-16T12:08:46.258Z,14.40
2017-11-16T12:09:46.237Z,11.10
2017-11-16T12:10:46.200Z,13.00
2017-11-16T12:11:46.176Z,12.50
2017-11-16T12:12:46.396Z,14.60
2017-11-16T12:13:46.122Z,12.90
2017-11-16T12:14:46.090Z,14.30
2017-11-16T12:15:46.063Z,13.10
2017-11-16T12:16:46.044Z,11.10
2017-11-16T12:17:46.013Z,10.80
2017-11-16T12:18:46.794Z,10.70
2017-11-16T12:19:45.954Z,8.30
2017-11-16T12:20:45.933Z,10.90
2017-11-16T12:21:45.905Z,11.40
2017-11-16T12:22:45.888Z,8.00
2017-11-16T12:23:45.858Z,10.30
2017-11-16T12:24:45.822Z,11.00
2017-11-16T12:25:45.794Z,10.40
2017-11-16T12:26:45.773Z,10.50
2017-11-16T12:27:45.745Z,14.50
2017-11-16T12:28:45.713Z,10.70
2017-11-16T12:29:45.691Z,11.30
2017-11-16T12:30:45.661Z,9.70
2017-11-16T12:31:45.640Z,9.00
2017-11-16T12:32:45.611Z,9.40
2017-11-16T12:33:45.608Z,10.30
2017-11-16T12:34:45.548Z,8.60
2017-11-16T12:35:45.531Z,8.50
2017-11-16T12:36:45.501Z,8.80
2017-11-16T12:37:45.843Z,12.40
2017-11-16T12:38:45.437Z,11.00
2017-11-16T12:39:45.415Z,10.00
2017-11-16T12:40:45.393Z,9.50
2017-11-16T12:41:45.354Z,10.90
2017-11-16T12:42:45.335Z,9.10
2017-11-16T12:43:45.308Z,10.70
2017-11-16T12:44:45.272Z,10.80
2017-11-16T12:45:45.251Z,11.60
2017-11-16T12:46:45.231Z,13.10
2017-11-16T12:47:45.189Z,12.70
2017-11-16T12:48:45.264Z,10.10
2017-11-16T12:49:45.138Z,14.60
2017-11-16T12:50:45.119Z,10.90